Tabellarische Übersicht vom Freitag, den 19.07.2019

Oder anderes Datum wählen:






max 20,3°C 84,0% 14,8°C 1012,5hPa 20,0°C 0,0km/h (0Bft) 0,0km/h 0° (N) ∑0,0l/m² 0,000klx ∑0,0min
min 17,2°C 69,0% 14,2°C 1012,1hPa 17,0°C 0,0km/h (0Bft) 0,0km/h 0° (N) ∑0,0l/m² 0,000klx ∑0,0min
Ø 18,9°C 75,0% 14,4°C 1012,4hPa 19,0°C 0,0km/h (0Bft) 0,0km/h 0° (N) ∑0,0l/m² 0,000klx ∑0,0min
Zeit Temperatur Luftfeuchte Taupunkt Luftdruck Windchill Windböen Windgeschwindigkeit Windrichtung Regen Helligkeit Regenzeit
04:00 17,3°C 83,4% 14,5°C 1012,5hPa 17,3°C 0,0km/h (0Bft) 0,0km/h 0,0l/m² 0,000klx 0,0min
03:55 17,3°C 83,7% 14,5°C 1012,5hPa 17,3°C 0,0km/h (0Bft) 0,0km/h 0,0l/m² 0,000klx 0,0min
03:50 17,2°C 83,8% 14,5°C 1012,5hPa 17,2°C 0,0km/h (0Bft) 0,0km/h 0,0l/m² 0,000klx 0,0min
03:45 17,4°C 83,2% 14,5°C 1012,5hPa 17,4°C 0,0km/h (0Bft) 0,0km/h 0,0l/m² 0,000klx 0,0min
03:40 17,4°C 82,7% 14,4°C 1012,5hPa 17,4°C 0,0km/h (0Bft) 0,0km/h 0,0l/m² 0,000klx 0,0min
03:35 17,5°C 82,2% 14,4°C 1012,5hPa 17,5°C 0,0km/h (0Bft) 0,0km/h 0,0l/m² 0,000klx 0,0min
03:30 17,5°C 82,4% 14,5°C 1012,5hPa 17,5°C 0,0km/h (0Bft) 0,0km/h 0,0l/m² 0,000klx 0,0min
03:25 17,5°C 82,0% 14,4°C 1012,5hPa 17,5°C 0,0km/h (0Bft) 0,0km/h 0,0l/m² 0,000klx 0,0min
03:20 17,6°C 81,8% 14,4°C 1012,4hPa 17,6°C 0,0km/h (0Bft) 0,0km/h 0,0l/m² 0,000klx 0,0min
03:15 17,6°C 82,1% 14,5°C 1012,4hPa 17,6°C 0,0km/h (0Bft) 0,0km/h 0,0l/m² 0,000klx 0,0min
03:10 17,7°C 81,6% 14,5°C 1012,4hPa 17,7°C 0,0km/h (0Bft) 0,0km/h 0,0l/m² 0,000klx 0,0min
03:05 17,7°C 81,3% 14,5°C 1012,4hPa 17,7°C 0,0km/h (0Bft) 0,0km/h 0,0l/m² 0,000klx 0,0min
03:00 17,8°C 80,9% 14,5°C 1012,4hPa 17,8°C 0,0km/h (0Bft) 0,0km/h 0,0l/m² 0,000klx 0,0min
02:55 17,8°C 80,0% 14,3°C 1012,4hPa 17,8°C 0,0km/h (0Bft) 0,0km/h 0,0l/m² 0,000klx 0,0min
02:50 18,0°C 78,2% 14,2°C 1012,4hPa 18,0°C 0,0km/h (0Bft) 0,0km/h 0,0l/m² 0,000klx 0,0min
02:45 18,3°C 77,2% 14,2°C 1012,4hPa 18,3°C 0,0km/h (0Bft) 0,0km/h 0,0l/m² 0,000klx 0,0min
02:40 18,3°C 77,2% 14,2°C 1012,4hPa 18,3°C 0,0km/h (0Bft) 0,0km/h 0,0l/m² 0,000klx 0,0min
02:35 18,4°C 76,4% 14,2°C 1012,4hPa 18,4°C 0,0km/h (0Bft) 0,0km/h 0,0l/m² 0,000klx 0,0min
02:30 18,5°C 76,3% 14,2°C 1012,5hPa 18,5°C 0,0km/h (0Bft) 0,0km/h 0,0l/m² 0,000klx 0,0min
02:25 18,8°C 74,8% 14,2°C 1012,5hPa 18,8°C 0,0km/h (0Bft) 0,0km/h 0,0l/m² 0,000klx 0,0min
02:20 19,1°C 73,6% 14,2°C 1012,5hPa 19,1°C 0,0km/h (0Bft) 0,0km/h 0,0l/m² 0,000klx 0,0min
02:15 19,1°C 73,3% 14,2°C 1012,5hPa 19,1°C 0,0km/h (0Bft) 0,0km/h 0,0l/m² 0,000klx 0,0min
02:10 19,0°C 74,2% 14,3°C 1012,5hPa 19,0°C 0,0km/h (0Bft) 0,0km/h 0,0l/m² 0,000klx 0,0min
02:05 19,0°C 74,1% 14,3°C 1012,4hPa 19,0°C 0,0km/h (0Bft) 0,0km/h 0,0l/m² 0,000klx 0,0min
02:00 19,0°C 74,0% 14,3°C 1012,4hPa 19,0°C 0,0km/h (0Bft) 0,0km/h 0,0l/m² 0,000klx 0,0min
01:55 19,2°C 73,3% 14,3°C 1012,4hPa 19,2°C 0,0km/h (0Bft) 0,0km/h 0,0l/m² 0,000klx 0,0min
01:50 19,3°C 72,9% 14,3°C 1012,4hPa 19,3°C 0,0km/h (0Bft) 0,0km/h 0,0l/m² 0,001klx 0,0min
01:45 19,4°C 72,6% 14,3°C 1012,4hPa 19,4°C 0,0km/h (0Bft) 0,0km/h 0,0l/m² 0,000klx 0,0min
01:40 19,6°C 71,5% 14,3°C 1012,4hPa 19,6°C 0,0km/h (0Bft) 0,0km/h 0,0l/m² 0,000klx 0,0min
01:35 19,6°C 71,1% 14,2°C 1012,4hPa 19,6°C 0,0km/h (0Bft) 0,0km/h 0,0l/m² 0,000klx 0,0min
01:30 19,6°C 71,2% 14,3°C 1012,4hPa 19,6°C 0,0km/h (0Bft) 0,0km/h 0,0l/m² 0,000klx 0,0min
01:25 19,7°C 71,4% 14,3°C 1012,4hPa 19,7°C 0,0km/h (0Bft) 0,0km/h 0,0l/m² 0,000klx 0,0min
01:20 19,7°C 72,0% 14,5°C 1012,4hPa 19,7°C 0,0km/h (0Bft) 0,0km/h 0,0l/m² 0,000klx 0,0min
01:15 19,8°C 71,8% 14,6°C 1012,4hPa 19,8°C 0,0km/h (0Bft) 0,0km/h 0,0l/m² 0,000klx 0,0min
01:10 19,9°C 71,6% 14,6°C 1012,4hPa 19,9°C 0,0km/h (0Bft) 0,0km/h 0,0l/m² 0,000klx 0,0min
01:05 19,9°C 72,1% 14,7°C 1012,4hPa 19,9°C 0,0km/h (0Bft) 0,0km/h 0,0l/m² 0,000klx 0,0min
01:00 19,8°C 72,5% 14,7°C 1012,4hPa 19,8°C 0,0km/h (0Bft) 0,0km/h 0,0l/m² 0,000klx 0,0min
00:55 19,9°C 72,3% 14,7°C 1012,3hPa 19,9°C 0,0km/h (0Bft) 0,0km/h 0,0l/m² 0,000klx 0,0min
00:50 20,0°C 71,8% 14,8°C 1012,3hPa 20,0°C 0,0km/h (0Bft) 0,0km/h 0,0l/m² 0,000klx 0,0min
00:45 20,0°C 72,3% 14,8°C 1012,3hPa 20,0°C 0,0km/h (0Bft) 0,0km/h 0,0l/m² 0,000klx 0,0min
00:40 19,9°C 72,2% 14,8°C 1012,3hPa 19,9°C 0,0km/h (0Bft) 0,0km/h 0,0l/m² 0,000klx 0,0min
00:35 20,1°C 71,2% 14,7°C 1012,3hPa 20,1°C 0,0km/h (0Bft) 0,0km/h 0,0l/m² 0,000klx 0,0min
00:30 20,2°C 70,3% 14,6°C 1012,2hPa 20,2°C 0,0km/h (0Bft) 0,0km/h 0,0l/m² 0,000klx 0,0min
00:25 20,2°C 69,9% 14,5°C 1012,2hPa 20,2°C 0,0km/h (0Bft) 0,0km/h 0,0l/m² 0,001klx 0,0min
00:20 20,3°C 69,3% 14,4°C 1012,2hPa 20,3°C 0,0km/h (0Bft) 0,0km/h 0,0l/m² 0,000klx 0,0min
00:15 20,3°C 68,6% 14,3°C 1012,2hPa 20,3°C 0,0km/h (0Bft) 0,0km/h 0,0l/m² 0,000klx 0,0min
00:10 20,2°C 69,2% 14,4°C 1012,1hPa 20,2°C 0,0km/h (0Bft) 0,0km/h 0,0l/m² 0,000klx 0,0min
00:05 20,2°C 69,6% 14,4°C 1012,1hPa 20,2°C 0,0km/h (0Bft) 0,0km/h 0,0l/m² 0,000klx 0,0min
00:00 20,2°C 69,2% 14,4°C 1012,1hPa 20,2°C 0,0km/h (0Bft) 0,0km/h 0,0l/m² 0,000klx 0,0min

Aktuelle Wetterdaten

19.07.2019 04:00 Uhr